createdAt,value
2023-02-03T00:00:23.457Z,1.96
2023-02-03T00:03:46.284Z,1.68
2023-02-03T00:07:08.733Z,1.81
2023-02-03T00:10:31.564Z,1.73
2023-02-03T00:13:55.321Z,1.58
2023-02-03T00:17:17.781Z,1.54
2023-02-03T00:20:42.671Z,1.58
2023-02-03T00:24:05.171Z,1.46
2023-02-03T00:27:27.408Z,1.46
2023-02-03T00:30:54.100Z,1.42
2023-02-03T00:34:16.715Z,1.44
2023-02-03T00:37:39.021Z,1.38
2023-02-03T00:41:02.504Z,1.44
2023-02-03T00:44:27.679Z,1.49
2023-02-03T00:47:53.651Z,1.41
2023-02-03T00:51:16.346Z,1.51
2023-02-03T00:54:38.837Z,1.36
2023-02-03T00:58:01.338Z,1.29
2023-02-03T01:01:23.873Z,1.25
2023-02-03T01:04:48.540Z,1.21
2023-02-03T01:08:10.938Z,1.18
2023-02-03T01:11:33.876Z,1.13
2023-02-03T01:14:56.380Z,1.14
2023-02-03T01:18:21.173Z,1.10
2023-02-03T01:21:45.604Z,1.16
2023-02-03T01:25:09.548Z,0.89
2023-02-03T01:28:32.871Z,0.96
2023-02-03T01:31:55.584Z,0.75
2023-02-03T01:35:18.041Z,0.93
2023-02-03T01:38:42.451Z,1.04
2023-02-03T01:42:05.992Z,0.86
2023-02-03T01:45:28.477Z,0.95
2023-02-03T01:48:50.942Z,0.86
2023-02-03T01:52:13.289Z,0.78
2023-02-03T01:55:38.670Z,0.69
2023-02-03T01:59:01.440Z,0.64
2023-02-03T02:02:24.971Z,0.66
2023-02-03T02:05:49.661Z,0.62
2023-02-03T02:09:11.979Z,0.73
2023-02-03T02:12:38.804Z,0.81
2023-02-03T02:16:07.011Z,0.84
2023-02-03T02:19:53.867Z,0.90
2023-02-03T02:23:38.012Z,0.86
2023-02-03T02:27:10.679Z,0.78
2023-02-03T02:30:55.966Z,0.73
2023-02-03T02:34:23.865Z,0.64
2023-02-03T02:37:50.659Z,0.63
2023-02-03T02:41:17.151Z,0.73
2023-02-03T02:44:42.413Z,0.70
2023-02-03T02:48:08.343Z,0.65
2023-02-03T02:51:32.416Z,0.62
2023-02-03T02:54:56.297Z,0.70
2023-02-03T02:58:19.166Z,0.65
2023-02-03T03:01:42.371Z,0.69
2023-02-03T03:05:05.390Z,0.79
2023-02-03T03:08:31.848Z,0.85
2023-02-03T03:11:55.669Z,0.84
2023-02-03T03:15:22.294Z,0.78
2023-02-03T03:18:45.565Z,0.71
2023-02-03T03:22:09.404Z,0.60
2023-02-03T03:25:35.867Z,0.48
2023-02-03T03:29:02.228Z,0.45
2023-02-03T03:32:24.581Z,0.43
2023-02-03T03:35:49.356Z,0.54
2023-02-03T03:39:15.025Z,0.41
2023-02-03T03:46:04.281Z,0.31
2023-02-03T03:49:27.183Z,0.16
2023-02-03T03:52:49.774Z,0.15
2023-02-03T03:56:14.778Z,0.03
2023-02-03T03:59:39.400Z,0.17
2023-02-03T04:03:03.635Z,-0.11
2023-02-03T04:06:26.167Z,-0.09
2023-02-03T04:09:48.550Z,0.23
2023-02-03T04:13:11.759Z,-0.12
2023-02-03T04:16:35.564Z,-0.23
2023-02-03T04:19:58.420Z,0.17
2023-02-03T04:23:20.748Z,-0.04
2023-02-03T04:26:43.224Z,-0.09
2023-02-03T04:30:06.105Z,-0.19
2023-02-03T04:33:30.174Z,0.00
2023-02-03T04:36:52.625Z,-0.06
2023-02-03T04:40:15.138Z,0.10
2023-02-03T04:43:37.753Z,-0.06
2023-02-03T04:47:00.223Z,-0.08
2023-02-03T04:50:24.326Z,-0.20
2023-02-03T04:53:47.327Z,-0.41
2023-02-03T04:57:09.759Z,-0.32
2023-02-03T05:00:32.374Z,-0.45
2023-02-03T05:03:54.991Z,-0.22
2023-02-03T05:07:21.284Z,-0.41
2023-02-03T05:10:43.454Z,-0.20
2023-02-03T05:14:06.096Z,0.03
2023-02-03T05:17:28.313Z,-0.25
2023-02-03T05:20:50.795Z,-0.28
2023-02-03T05:24:14.557Z,-0.34
2023-02-03T05:27:39.031Z,0.38
2023-02-03T05:31:01.612Z,0.71
2023-02-03T05:34:24.460Z,0.28
2023-02-03T05:37:46.940Z,0.30
2023-02-03T05:41:29.734Z,0.11
2023-02-03T05:44:51.900Z,0.18
2023-02-03T05:48:14.210Z,0.17
2023-02-03T05:51:36.814Z,0.11
2023-02-03T05:54:59.245Z,0.52
2023-02-03T05:58:23.185Z,0.56
2023-02-03T06:01:45.640Z,0.76
2023-02-03T06:05:09.100Z,0.61
2023-02-03T06:08:31.289Z,0.46
2023-02-03T06:11:53.878Z,0.65
2023-02-03T06:15:17.968Z,0.44
2023-02-03T06:18:40.675Z,0.47
2023-02-03T06:22:03.441Z,0.12
2023-02-03T06:25:26.374Z,0.18
2023-02-03T06:28:49.051Z,-0.11
2023-02-03T06:32:13.042Z,0.02
2023-02-03T06:35:35.690Z,0.04
2023-02-03T06:38:59.260Z,-0.15
2023-02-03T06:42:21.416Z,0.28
2023-02-03T06:45:46.066Z,0.45
2023-02-03T06:49:09.913Z,0.47
2023-02-03T06:52:32.286Z,0.41
2023-02-03T06:55:54.916Z,0.44
2023-02-03T06:59:17.555Z,0.38
2023-02-03T07:02:40.139Z,0.30
2023-02-03T07:06:04.921Z,0.49
2023-02-03T07:09:27.543Z,0.55
2023-02-03T07:12:50.866Z,0.72
2023-02-03T07:16:13.667Z,0.67
2023-02-03T07:19:36.549Z,0.51
2023-02-03T07:23:00.418Z,0.71
2023-02-03T07:26:25.287Z,0.53
2023-02-03T07:29:47.844Z,0.37
2023-02-03T07:33:10.359Z,0.66
2023-02-03T07:36:32.817Z,0.61
2023-02-03T07:39:56.665Z,0.85
2023-02-03T07:43:18.876Z,0.91
2023-02-03T07:46:44.949Z,1.06
2023-02-03T07:50:07.735Z,1.16
2023-02-03T07:53:30.116Z,0.90
2023-02-03T07:56:54.466Z,1.07
2023-02-03T08:00:18.276Z,1.17
2023-02-03T08:03:41.445Z,1.22
2023-02-03T08:07:03.831Z,1.20
2023-02-03T08:10:26.703Z,1.34
2023-02-03T08:13:51.075Z,1.33
2023-02-03T08:17:13.399Z,1.26
2023-02-03T08:20:35.679Z,1.22
2023-02-03T08:23:58.118Z,1.05
2023-02-03T08:27:21.749Z,1.17
2023-02-03T08:30:45.995Z,1.12
2023-02-03T08:34:08.344Z,1.31
2023-02-03T08:37:32.553Z,1.34
2023-02-03T08:40:54.759Z,1.37
2023-02-03T08:44:18.667Z,1.32
2023-02-03T08:47:42.250Z,1.41
2023-02-03T08:51:10.192Z,1.45
2023-02-03T08:54:32.371Z,1.58
2023-02-03T08:57:54.912Z,1.58
2023-02-03T09:01:17.470Z,1.73
2023-02-03T09:04:42.002Z,1.55
2023-02-03T09:08:04.576Z,1.65
2023-02-03T09:11:27.185Z,1.67
2023-02-03T09:14:49.649Z,1.70
2023-02-03T09:18:12.824Z,1.76
2023-02-03T09:21:43.791Z,1.78
2023-02-03T09:25:13.988Z,1.82
2023-02-03T09:28:36.011Z,1.76
2023-02-03T09:32:00.211Z,1.71
2023-02-03T09:35:22.411Z,1.44
2023-02-03T09:38:46.316Z,1.02
2023-02-03T09:42:24.178Z,0.81
2023-02-03T09:45:47.118Z,0.65
2023-02-03T09:49:14.957Z,0.47
2023-02-03T09:52:39.443Z,0.42
2023-02-03T09:56:03.468Z,0.52
2023-02-03T09:59:26.144Z,0.38
2023-02-03T10:02:55.623Z,0.46
2023-02-03T10:06:23.636Z,0.53
2023-02-03T10:09:51.561Z,0.54
2023-02-03T10:13:24.198Z,0.59
2023-02-03T10:16:53.625Z,0.35
2023-02-03T10:20:18.940Z,0.60
2023-02-03T10:23:41.991Z,0.87
2023-02-03T10:27:05.077Z,0.68
2023-02-03T10:30:29.860Z,0.87
2023-02-03T10:33:57.854Z,0.95
2023-02-03T10:37:29.216Z,0.99
2023-02-03T10:40:53.520Z,1.01
2023-02-03T10:44:15.986Z,0.88
2023-02-03T10:47:41.101Z,0.58
2023-02-03T10:51:03.374Z,0.47
2023-02-03T10:54:32.218Z,0.60
2023-02-03T10:57:54.608Z,0.60
2023-02-03T11:01:18.324Z,0.49
2023-02-03T11:04:44.918Z,0.48
2023-02-03T11:08:12.132Z,0.44
2023-02-03T11:11:37.372Z,0.57
2023-02-03T11:15:00.539Z,0.45
2023-02-03T11:18:37.837Z,0.54
2023-02-03T11:22:02.114Z,0.56
2023-02-03T11:25:29.572Z,0.74
2023-02-03T11:28:54.121Z,0.60
2023-02-03T11:32:18.609Z,0.60
2023-02-03T11:35:41.400Z,0.75
2023-02-03T11:39:22.340Z,0.61
2023-02-03T11:42:45.959Z,0.55
2023-02-03T11:46:09.791Z,0.53
2023-02-03T11:50:07.794Z,0.52
2023-02-03T11:53:51.231Z,0.39
2023-02-03T11:57:30.621Z,0.55
2023-02-03T12:00:58.169Z,0.40
2023-02-03T12:04:36.648Z,0.44
2023-02-03T12:08:05.986Z,0.30
2023-02-03T12:11:35.947Z,0.35
2023-02-03T12:15:04.279Z,0.33
2023-02-03T12:18:34.520Z,0.32
2023-02-03T12:21:59.461Z,0.34
2023-02-03T12:25:31.340Z,0.45
2023-02-03T12:28:58.016Z,0.45
2023-02-03T12:32:26.310Z,0.49
2023-02-03T12:35:50.360Z,0.36
2023-02-03T12:39:16.298Z,0.50
2023-02-03T12:42:40.839Z,0.46
2023-02-03T12:46:05.889Z,0.57
2023-02-03T12:49:34.834Z,0.57
2023-02-03T12:52:58.638Z,0.59
2023-02-03T12:56:27.173Z,0.45
2023-02-03T13:00:00.156Z,0.47
2023-02-03T13:03:26.241Z,0.56
2023-02-03T13:06:54.095Z,0.66
2023-02-03T13:10:18.940Z,0.64
2023-02-03T13:13:45.075Z,0.59
2023-02-03T13:17:09.324Z,0.70
2023-02-03T13:20:36.055Z,0.59
2023-02-03T13:24:00.030Z,0.72
2023-02-03T13:27:37.075Z,0.72
2023-02-03T13:31:18.917Z,0.62
2023-02-03T13:34:49.668Z,0.48
2023-02-03T13:38:39.335Z,0.56
2023-02-03T13:42:15.542Z,0.64
2023-02-03T13:45:40.105Z,0.58
2023-02-03T13:49:03.984Z,0.66
2023-02-03T13:52:27.607Z,0.62
2023-02-03T13:55:54.815Z,0.68
2023-02-03T13:59:33.070Z,0.75
2023-02-03T14:02:56.116Z,0.66
2023-02-03T14:07:00.966Z,0.70
2023-02-03T14:10:24.375Z,0.73
2023-02-03T14:13:47.470Z,0.61
2023-02-03T14:17:31.334Z,0.73
2023-02-03T14:21:14.395Z,0.69
2023-02-03T14:24:38.021Z,0.81
2023-02-03T14:28:00.851Z,0.79
2023-02-03T14:31:23.640Z,0.82
2023-02-03T14:34:48.158Z,0.82
2023-02-03T14:38:12.255Z,0.93
2023-02-03T14:41:43.171Z,1.00
2023-02-03T14:45:12.664Z,1.14
2023-02-03T14:48:43.995Z,1.02
2023-02-03T14:52:20.778Z,1.21
2023-02-03T14:55:49.559Z,1.14
2023-02-03T14:59:12.319Z,1.12
2023-02-03T15:02:36.289Z,1.10
2023-02-03T15:06:03.344Z,1.15
2023-02-03T15:09:32.651Z,1.26
2023-02-03T15:12:56.048Z,1.31
2023-02-03T15:16:20.591Z,1.50
2023-02-03T15:19:43.605Z,1.41
2023-02-03T15:23:19.497Z,1.61
2023-02-03T15:26:47.814Z,1.55
2023-02-03T15:30:17.387Z,1.74
2023-02-03T15:33:39.795Z,1.64
2023-02-03T15:37:03.883Z,1.67
2023-02-03T15:40:27.408Z,1.76
2023-02-03T15:43:52.089Z,1.94
2023-02-03T15:47:21.375Z,2.07
2023-02-03T15:50:44.526Z,2.20
2023-02-03T15:54:10.347Z,2.34
2023-02-03T15:57:34.675Z,2.36
2023-02-03T16:00:59.143Z,2.58
2023-02-03T16:04:22.092Z,2.63
2023-02-03T16:07:44.694Z,2.70
2023-02-03T16:11:24.504Z,2.80
2023-02-03T16:14:47.119Z,2.79
2023-02-03T16:18:14.226Z,2.91
2023-02-03T16:21:37.234Z,2.93
2023-02-03T16:25:14.491Z,2.92
2023-02-03T16:28:54.058Z,2.86
2023-02-03T16:32:36.769Z,2.93
2023-02-03T16:36:21.479Z,3.00
2023-02-03T16:40:01.644Z,3.02
2023-02-03T16:43:41.415Z,2.98
2023-02-03T16:47:21.707Z,3.02
2023-02-03T16:50:54.142Z,3.05
2023-02-03T16:54:19.352Z,3.14
2023-02-03T16:57:42.212Z,3.12
2023-02-03T17:01:05.799Z,3.10
2023-02-03T17:04:28.215Z,3.13
2023-02-03T17:07:51.396Z,3.09
2023-02-03T17:11:17.241Z,3.14
2023-02-03T17:14:42.902Z,3.09
2023-02-03T17:18:05.800Z,3.17
2023-02-03T17:21:30.647Z,3.19
2023-02-03T17:24:54.724Z,3.14
2023-02-03T17:28:20.082Z,3.21
2023-02-03T17:31:44.701Z,3.23
2023-02-03T17:35:09.195Z,3.22
2023-02-03T17:38:32.147Z,3.23
2023-02-03T17:56:28.226Z,3.24
2023-02-03T17:59:55.671Z,3.34
2023-02-03T18:03:24.157Z,3.30
2023-02-03T18:06:49.765Z,3.37
2023-02-03T18:10:14.359Z,3.40
2023-02-03T18:13:39.002Z,3.39
2023-02-03T18:17:02.431Z,3.44
2023-02-03T18:20:28.442Z,3.47
2023-02-03T18:23:54.301Z,3.50
2023-02-03T18:27:17.432Z,3.55
2023-02-03T18:30:41.061Z,3.56
2023-02-03T18:34:07.089Z,3.62
2023-02-03T18:37:32.983Z,3.58
2023-02-03T18:40:59.108Z,3.63
2023-02-03T18:44:25.991Z,3.66
2023-02-03T18:47:51.196Z,3.62
2023-02-03T18:51:17.119Z,3.53
2023-02-03T18:54:46.034Z,3.57
2023-02-03T18:58:10.669Z,3.70
2023-02-03T19:01:34.989Z,3.70
2023-02-03T19:04:59.710Z,3.70
2023-02-03T19:08:24.613Z,3.72
2023-02-03T19:11:50.418Z,3.72
2023-02-03T19:15:18.868Z,3.70
2023-02-03T19:18:44.759Z,3.60
2023-02-03T19:22:14.080Z,3.65
2023-02-03T19:25:39.509Z,3.62
2023-02-03T19:29:06.286Z,3.67
2023-02-03T19:32:33.512Z,3.69
2023-02-03T19:35:58.122Z,3.63
2023-02-03T19:39:22.991Z,3.61
2023-02-03T19:42:47.613Z,3.67
2023-02-03T19:46:16.284Z,3.68
2023-02-03T19:49:49.147Z,3.68
2023-02-03T19:53:12.877Z,3.61
2023-02-03T19:56:37.592Z,3.68
2023-02-03T20:00:05.848Z,3.63
2023-02-03T20:03:41.734Z,3.80
2023-02-03T20:07:07.317Z,3.76
2023-02-03T20:10:33.321Z,3.90
2023-02-03T20:13:59.845Z,3.88
2023-02-03T20:17:24.822Z,3.84
2023-02-03T20:20:55.961Z,3.84
2023-02-03T20:24:22.369Z,3.76
2023-02-03T20:27:47.829Z,3.78
2023-02-03T20:31:12.287Z,3.85
2023-02-03T20:34:40.806Z,3.74
2023-02-03T20:38:06.421Z,3.66
2023-02-03T20:41:31.558Z,3.78
2023-02-03T20:44:55.897Z,3.83
2023-02-03T20:48:26.641Z,3.77
2023-02-03T20:51:53.276Z,3.78
2023-02-03T20:55:20.989Z,3.68
2023-02-03T20:58:47.193Z,3.61
2023-02-03T21:02:20.568Z,3.71
2023-02-03T21:05:50.957Z,3.53
2023-02-03T21:09:21.370Z,3.57
2023-02-03T21:12:47.668Z,3.69
2023-02-03T21:16:18.493Z,3.57
2023-02-03T21:19:44.899Z,3.60
2023-02-03T21:23:13.767Z,3.63
2023-02-03T21:26:39.853Z,3.63
2023-02-03T21:30:24.941Z,3.64
2023-02-03T21:33:52.076Z,3.55
2023-02-03T21:37:44.080Z,3.66
2023-02-03T21:41:16.646Z,3.64
2023-02-03T21:44:43.707Z,3.62
2023-02-03T21:48:28.792Z,3.66
2023-02-03T21:51:51.948Z,3.67
2023-02-03T21:55:15.772Z,3.73
2023-02-03T21:58:38.913Z,3.62
2023-02-03T22:02:03.995Z,3.51
2023-02-03T22:05:28.756Z,3.57
2023-02-03T22:08:54.346Z,3.56
2023-02-03T22:12:17.354Z,3.60
2023-02-03T22:15:39.922Z,3.61
2023-02-03T22:19:02.944Z,3.52
2023-02-03T22:22:26.578Z,3.55
2023-02-03T22:25:49.290Z,3.46
2023-02-03T22:29:11.807Z,3.42
2023-02-03T22:32:34.410Z,3.46
2023-02-03T22:35:56.975Z,3.44
2023-02-03T22:39:20.907Z,3.33
2023-02-03T22:42:43.445Z,3.42
2023-02-03T22:46:07.229Z,3.36
2023-02-03T22:49:30.071Z,3.44
2023-02-03T22:52:54.201Z,3.44
2023-02-03T22:56:17.837Z,3.44
2023-02-03T22:59:40.589Z,3.37
2023-02-03T23:03:04.232Z,3.42
2023-02-03T23:06:26.976Z,3.40
2023-02-03T23:09:49.445Z,3.46
2023-02-03T23:13:13.382Z,3.50
2023-02-03T23:16:35.846Z,3.53
2023-02-03T23:20:00.601Z,3.55
2023-02-03T23:23:22.808Z,3.54
2023-02-03T23:26:45.238Z,3.54
2023-02-03T23:30:10.390Z,3.42
2023-02-03T23:33:32.778Z,3.60
2023-02-03T23:36:54.251Z,3.70
2023-02-03T23:40:17.276Z,3.67
2023-02-03T23:43:39.639Z,3.78
2023-02-03T23:47:04.242Z,3.80
2023-02-03T23:50:26.480Z,3.78
2023-02-03T23:53:49.570Z,3.76
2023-02-03T23:57:12.041Z,3.71
